sensor_id;sensor_type;location;lat;lon;timestamp;pressure;altitude;pressure_sealevel;temperature
24714;BMP280;12820;51.580;5.010;2024-03-08T00:00:10;101733.31;;;7.43
24714;BMP280;12820;51.580;5.010;2024-03-08T00:05:17;101736.63;;;7.39
24714;BMP280;12820;51.580;5.010;2024-03-08T00:10:20;101734.91;;;7.37
24714;BMP280;12820;51.580;5.010;2024-03-08T00:15:24;101730.69;;;7.33
24714;BMP280;12820;51.580;5.010;2024-03-08T00:20:27;101732.31;;;7.29
24714;BMP280;12820;51.580;5.010;2024-03-08T00:25:29;101726.41;;;7.25
24714;BMP280;12820;51.580;5.010;2024-03-08T00:30:31;101719.66;;;7.19
24714;BMP280;12820;51.580;5.010;2024-03-08T00:35:33;101720.47;;;7.15
24714;BMP280;12820;51.580;5.010;2024-03-08T00:40:36;101711.22;;;7.11
24714;BMP280;12820;51.580;5.010;2024-03-08T00:45:38;101716.22;;;7.10
24714;BMP280;12820;51.580;5.010;2024-03-08T00:50:40;101716.97;;;7.05
24714;BMP280;12820;51.580;5.010;2024-03-08T00:55:42;101703.53;;;6.97
24714;BMP280;12820;51.580;5.010;2024-03-08T01:00:44;101694.31;;;6.94
24714;BMP280;12820;51.580;5.010;2024-03-08T01:05:47;101691.81;;;6.94
24714;BMP280;12820;51.580;5.010;2024-03-08T01:10:49;101690.06;;;6.89
24714;BMP280;12820;51.580;5.010;2024-03-08T01:15:52;101680.88;;;6.85
24714;BMP280;12820;51.580;5.010;2024-03-08T01:20:56;101682.50;;;6.82
24714;BMP280;12820;51.580;5.010;2024-03-08T01:25:59;101673.28;;;6.79
24714;BMP280;12820;51.580;5.010;2024-03-08T01:31:01;101665.72;;;6.75
24714;BMP280;12820;51.580;5.010;2024-03-08T01:36:06;101661.50;;;6.71
24714;BMP280;12820;51.580;5.010;2024-03-08T01:41:08;101660.59;;;6.66
24714;BMP280;12820;51.580;5.010;2024-03-08T01:46:12;101658.91;;;6.64
24714;BMP280;12820;51.580;5.010;2024-03-08T01:51:17;101657.16;;;6.60
24714;BMP280;12820;51.580;5.010;2024-03-08T01:56:19;101647.09;;;6.53
24714;BMP280;12820;51.580;5.010;2024-03-08T02:01:21;101635.38;;;6.50
24714;BMP280;12820;51.580;5.010;2024-03-08T02:06:23;101632.00;;;6.47
24714;BMP280;12820;51.580;5.010;2024-03-08T02:11:26;101623.59;;;6.42
24714;BMP280;12820;51.580;5.010;2024-03-08T02:16:28;101617.75;;;6.38
24714;BMP280;12820;51.580;5.010;2024-03-08T02:21:30;101622.66;;;6.36
24714;BMP280;12820;51.580;5.010;2024-03-08T02:26:33;101616.81;;;6.31
24714;BMP280;12820;51.580;5.010;2024-03-08T02:31:35;101610.91;;;6.26
24714;BMP280;12820;51.580;5.010;2024-03-08T02:36:37;101609.22;;;6.25
24714;BMP280;12820;51.580;5.010;2024-03-08T02:41:39;101596.63;;;6.19
24714;BMP280;12820;51.580;5.010;2024-03-08T02:46:42;101587.44;;;6.17
24714;BMP280;12820;51.580;5.010;2024-03-08T02:51:44;101578.22;;;6.11
24714;BMP280;12820;51.580;5.010;2024-03-08T02:56:46;101581.56;;;6.12
24714;BMP280;12820;51.580;5.010;2024-03-08T03:01:49;101567.34;;;6.06
24714;BMP280;12820;51.580;5.010;2024-03-08T03:06:51;101566.50;;;6.06
24714;BMP280;12820;51.580;5.010;2024-03-08T03:11:53;101553.09;;;6.01
24714;BMP280;12820;51.580;5.010;2024-03-08T03:16:57;101560.56;;;6.00
24714;BMP280;12820;51.580;5.010;2024-03-08T03:21:59;101549.63;;;5.93
24714;BMP280;12820;51.580;5.010;2024-03-08T03:27:01;101547.97;;;5.92
24714;BMP280;12820;51.580;5.010;2024-03-08T03:32:13;101542.09;;;5.89
24714;BMP280;12820;51.580;5.010;2024-03-08T03:37:15;101536.19;;;5.84
24714;BMP280;12820;51.580;5.010;2024-03-08T03:42:19;101537.84;;;5.82
24714;BMP280;12820;51.580;5.010;2024-03-08T03:47:22;101531.94;;;5.79
24714;BMP280;12820;51.580;5.010;2024-03-08T03:52:24;101523.56;;;5.75
24714;BMP280;12820;51.580;5.010;2024-03-08T03:57:26;101517.75;;;5.73
24714;BMP280;12820;51.580;5.010;2024-03-08T04:02:28;101523.53;;;5.72
24714;BMP280;12820;51.580;5.010;2024-03-08T04:07:30;101524.31;;;5.70
24714;BMP280;12820;51.580;5.010;2024-03-08T04:12:35;101517.59;;;5.66
24714;BMP280;12820;51.580;5.010;2024-03-08T04:17:37;101506.78;;;5.64
24714;BMP280;12820;51.580;5.010;2024-03-08T04:22:40;101505.09;;;5.65
24714;BMP280;12820;51.580;5.010;2024-03-08T04:27:42;101499.16;;;5.58
24714;BMP280;12820;51.580;5.010;2024-03-08T04:32:44;101495.81;;;5.56
24714;BMP280;12820;51.580;5.010;2024-03-08T04:37:46;101494.09;;;5.52
24714;BMP280;12820;51.580;5.010;2024-03-08T04:42:49;101490.72;;;5.49
24714;BMP280;12820;51.580;5.010;2024-03-08T04:47:53;101483.16;;;5.46
24714;BMP280;12820;51.580;5.010;2024-03-08T04:52:55;101473.97;;;5.42
24714;BMP280;12820;51.580;5.010;2024-03-08T04:57:57;101485.59;;;5.42
24714;BMP280;12820;51.580;5.010;2024-03-08T05:02:59;101471.41;;;5.38
24714;BMP280;12820;51.580;5.010;2024-03-08T05:08:02;101466.38;;;5.35
24714;BMP280;12820;51.580;5.010;2024-03-08T05:13:05;101471.31;;;5.33
24714;BMP280;12820;51.580;5.010;2024-03-08T05:18:07;101467.13;;;5.30
24714;BMP280;12820;51.580;5.010;2024-03-08T05:23:10;101475.44;;;5.30
24714;BMP280;12820;51.580;5.010;2024-03-08T05:28:12;101465.34;;;5.24
24714;BMP280;12820;51.580;5.010;2024-03-08T05:33:15;101466.13;;;5.22
24714;BMP280;12820;51.580;5.010;2024-03-08T05:38:17;101465.31;;;5.21
24714;BMP280;12820;51.580;5.010;2024-03-08T05:43:19;101466.03;;;5.16
24714;BMP280;12820;51.580;5.010;2024-03-08T05:48:21;101445.19;;;5.13
24714;BMP280;12820;51.580;5.010;2024-03-08T05:53:24;101448.50;;;5.10
24714;BMP280;12820;51.580;5.010;2024-03-08T05:58:26;101438.50;;;5.09
24714;BMP280;12820;51.580;5.010;2024-03-08T06:03:28;101440.91;;;5.04
24714;BMP280;12820;51.580;5.010;2024-03-08T06:08:32;101445.91;;;5.04
24714;BMP280;12820;51.580;5.010;2024-03-08T06:13:35;101444.16;;;5.00
24714;BMP280;12820;51.580;5.010;2024-03-08T06:18:37;101433.41;;;5.03
24714;BMP280;12820;51.580;5.010;2024-03-08T06:23:40;101430.06;;;5.01
24714;BMP280;12820;51.580;5.010;2024-03-08T06:28:42;101413.47;;;5.01
24714;BMP280;12820;51.580;5.010;2024-03-08T06:33:44;101422.63;;;5.02
24714;BMP280;12820;51.580;5.010;2024-03-08T06:38:50;101418.47;;;5.01
24714;BMP280;12820;51.580;5.010;2024-03-08T06:43:52;101418.50;;;5.04
24714;BMP280;12820;51.580;5.010;2024-03-08T06:48:59;101409.34;;;5.03
24714;BMP280;12820;51.580;5.010;2024-03-08T06:54:01;101399.44;;;5.06
24714;BMP280;12820;51.580;5.010;2024-03-08T06:59:03;101401.16;;;5.10
24714;BMP280;12820;51.580;5.010;2024-03-08T07:04:06;101407.09;;;5.16
24714;BMP280;12820;51.580;5.010;2024-03-08T07:09:08;101404.59;;;5.18
24714;BMP280;12820;51.580;5.010;2024-03-08T07:14:10;101393.06;;;5.23
24714;BMP280;12820;51.580;5.010;2024-03-08T07:19:13;101399.78;;;5.28
24714;BMP280;12820;51.580;5.010;2024-03-08T07:24:15;101391.59;;;5.35
24714;BMP280;12820;51.580;5.010;2024-03-08T07:29:29;101386.69;;;5.39
24714;BMP280;12820;51.580;5.010;2024-03-08T07:34:31;101376.78;;;5.44
24714;BMP280;12820;51.580;5.010;2024-03-08T07:39:34;101381.03;;;5.50
24714;BMP280;12820;51.580;5.010;2024-03-08T07:44:36;101372.03;;;5.58
24714;BMP280;12820;51.580;5.010;2024-03-08T07:49:38;101376.31;;;5.67
24714;BMP280;12820;51.580;5.010;2024-03-08T07:54:41;101362.28;;;5.74
24714;BMP280;12820;51.580;5.010;2024-03-08T07:59:46;101359.06;;;5.81
24714;BMP280;12820;51.580;5.010;2024-03-08T08:04:48;101360.00;;;5.89
24714;BMP280;12820;51.580;5.010;2024-03-08T08:09:52;101345.97;;;5.97
24714;BMP280;12820;51.580;5.010;2024-03-08T08:14:56;101351.91;;;6.07
24714;BMP280;12820;51.580;5.010;2024-03-08T08:19:58;101359.53;;;6.16
24714;BMP280;12820;51.580;5.010;2024-03-08T08:25:03;101336.28;;;6.23
24714;BMP280;12820;51.580;5.010;2024-03-08T08:30:06;101321.41;;;6.32
24714;BMP280;12820;51.580;5.010;2024-03-08T08:35:10;101316.50;;;6.40
24714;BMP280;12820;51.580;5.010;2024-03-08T08:40:14;101313.28;;;6.50
24714;BMP280;12820;51.580;5.010;2024-03-08T08:45:17;101309.22;;;6.61
24714;BMP280;12820;51.580;5.010;2024-03-08T08:50:26;101305.97;;;6.71
24714;BMP280;12820;51.580;5.010;2024-03-08T08:55:30;101300.25;;;6.80
24714;BMP280;12820;51.580;5.010;2024-03-08T09:00:33;101288.69;;;6.91
24714;BMP280;12820;51.580;5.010;2024-03-08T09:05:36;101280.41;;;7.01
24714;BMP280;12820;51.580;5.010;2024-03-08T09:10:41;101281.31;;;7.11
24714;BMP280;12820;51.580;5.010;2024-03-08T09:15:43;101266.41;;;7.23
24714;BMP280;12820;51.580;5.010;2024-03-08T09:20:46;101262.28;;;7.35
24714;BMP280;12820;51.580;5.010;2024-03-08T09:25:49;101259.03;;;7.49
24714;BMP280;12820;51.580;5.010;2024-03-08T09:30:51;101229.94;;;7.63
24714;BMP280;12820;51.580;5.010;2024-03-08T09:36:01;101217.44;;;7.75
24714;BMP280;12820;51.580;5.010;2024-03-08T09:41:06;101215.00;;;7.89
24714;BMP280;12820;51.580;5.010;2024-03-08T09:46:08;101190.03;;;8.04
24714;BMP280;12820;51.580;5.010;2024-03-08T09:51:10;101173.34;;;8.17
24714;BMP280;12820;51.580;5.010;2024-03-08T09:56:18;101184.22;;;8.31
24714;BMP280;12820;51.580;5.010;2024-03-08T10:01:20;101158.34;;;8.44
24714;BMP280;12820;51.580;5.010;2024-03-08T10:06:24;101145.78;;;8.61
24714;BMP280;12820;51.580;5.010;2024-03-08T10:11:27;101142.41;;;8.74
24714;BMP280;12820;51.580;5.010;2024-03-08T10:16:30;101131.53;;;8.88
24714;BMP280;12820;51.580;5.010;2024-03-08T10:21:32;101106.41;;;9.03
24714;BMP280;12820;51.580;5.010;2024-03-08T10:26:36;101108.84;;;9.19
24714;BMP280;12820;51.580;5.010;2024-03-08T10:31:38;101088.72;;;9.30
24714;BMP280;12820;51.580;5.010;2024-03-08T10:36:41;101092.81;;;9.50
24714;BMP280;12820;51.580;5.010;2024-03-08T10:41:44;101087.69;;;9.65
24714;BMP280;12820;51.580;5.010;2024-03-08T10:47:15;101075.84;;;9.89
24714;BMP280;12820;51.580;5.010;2024-03-08T10:52:19;101053.00;;;10.18
24714;BMP280;12820;51.580;5.010;2024-03-08T10:57:21;101035.78;;;10.61
24714;BMP280;12820;51.580;5.010;2024-03-08T11:02:26;101033.22;;;11.33
24714;BMP280;12820;51.580;5.010;2024-03-08T11:07:33;101029.69;;;12.43
24714;BMP280;12820;51.580;5.010;2024-03-08T11:12:37;101022.13;;;13.59
24714;BMP280;12820;51.580;5.010;2024-03-08T11:22:52;100988.94;;;17.37
24714;BMP280;12820;51.580;5.010;2024-03-08T11:28:28;100983.94;;;19.09
24714;BMP280;12820;51.580;5.010;2024-03-08T11:33:30;100971.69;;;20.82
24714;BMP280;12820;51.580;5.010;2024-03-08T11:38:33;100961.56;;;22.54
24714;BMP280;12820;51.580;5.010;2024-03-08T11:43:35;100949.75;;;24.32
24714;BMP280;12820;51.580;5.010;2024-03-08T11:48:39;100932.44;;;25.74
24714;BMP280;12820;51.580;5.010;2024-03-08T11:53:44;100925.53;;;27.05
24714;BMP280;12820;51.580;5.010;2024-03-08T11:58:54;100919.28;;;27.48
24714;BMP280;12820;51.580;5.010;2024-03-08T12:03:59;100908.63;;;27.73
24714;BMP280;12820;51.580;5.010;2024-03-08T12:09:01;100914.13;;;27.79
24714;BMP280;12820;51.580;5.010;2024-03-08T12:14:04;100897.84;;;28.08
24714;BMP280;12820;51.580;5.010;2024-03-08T12:19:09;100891.94;;;28.55
24714;BMP280;12820;51.580;5.010;2024-03-08T12:24:15;100869.06;;;29.17
24714;BMP280;12820;51.580;5.010;2024-03-08T12:29:21;100862.66;;;29.58
24714;BMP280;12820;51.580;5.010;2024-03-08T12:34:24;100851.34;;;29.59
24714;BMP280;12820;51.580;5.010;2024-03-08T12:39:26;100851.19;;;28.48
24714;BMP280;12820;51.580;5.010;2024-03-08T12:44:30;100855.25;;;25.96
24714;BMP280;12820;51.580;5.010;2024-03-08T12:49:32;100846.97;;;24.32
24714;BMP280;12820;51.580;5.010;2024-03-08T12:54:34;100842.44;;;23.51
24714;BMP280;12820;51.580;5.010;2024-03-08T12:59:36;100832.22;;;23.75
24714;BMP280;12820;51.580;5.010;2024-03-08T13:04:40;100823.16;;;23.82
24714;BMP280;12820;51.580;5.010;2024-03-08T13:09:42;100808.81;;;24.96
24714;BMP280;12820;51.580;5.010;2024-03-08T13:14:45;100787.81;;;26.23
24714;BMP280;12820;51.580;5.010;2024-03-08T13:19:48;100789.22;;;27.49
24714;BMP280;12820;51.580;5.010;2024-03-08T13:24:51;100766.81;;;28.56
24714;BMP280;12820;51.580;5.010;2024-03-08T13:29:55;100761.47;;;29.59
24714;BMP280;12820;51.580;5.010;2024-03-08T13:34:58;100758.81;;;30.56
24714;BMP280;12820;51.580;5.010;2024-03-08T13:40:00;100730.72;;;31.45
24714;BMP280;12820;51.580;5.010;2024-03-08T13:45:02;100730.88;;;32.09
24714;BMP280;12820;51.580;5.010;2024-03-08T13:50:07;100727.78;;;32.69
24714;BMP280;12820;51.580;5.010;2024-03-08T13:55:09;100709.56;;;33.23
24714;BMP280;12820;51.580;5.010;2024-03-08T14:00:12;100703.56;;;33.76
24714;BMP280;12820;51.580;5.010;2024-03-08T14:05:15;100688.34;;;34.25
24714;BMP280;12820;51.580;5.010;2024-03-08T14:10:18;100678.63;;;34.63
24714;BMP280;12820;51.580;5.010;2024-03-08T14:15:25;100665.31;;;34.94
24714;BMP280;12820;51.580;5.010;2024-03-08T14:20:27;100647.47;;;35.11
24714;BMP280;12820;51.580;5.010;2024-03-08T14:25:29;100635.91;;;35.28
24714;BMP280;12820;51.580;5.010;2024-03-08T14:30:33;100625.78;;;35.39
24714;BMP280;12820;51.580;5.010;2024-03-08T14:35:38;100611.97;;;35.45
24714;BMP280;12820;51.580;5.010;2024-03-08T14:40:41;100616.75;;;35.55
24714;BMP280;12820;51.580;5.010;2024-03-08T14:45:48;100607.44;;;35.53
24714;BMP280;12820;51.580;5.010;2024-03-08T14:50:51;100588.84;;;35.28
24714;BMP280;12820;51.580;5.010;2024-03-08T14:55:54;100576.03;;;34.90
24714;BMP280;12820;51.580;5.010;2024-03-08T15:00:57;100577.69;;;34.33
24714;BMP280;12820;51.580;5.010;2024-03-08T15:06:03;100569.63;;;33.69
24714;BMP280;12820;51.580;5.010;2024-03-08T15:11:10;100561.91;;;33.08
24714;BMP280;12820;51.580;5.010;2024-03-08T15:16:12;100561.19;;;32.30
24714;BMP280;12820;51.580;5.010;2024-03-08T15:21:18;100552.09;;;31.55
24714;BMP280;12820;51.580;5.010;2024-03-08T15:26:21;100542.59;;;30.98
24714;BMP280;12820;51.580;5.010;2024-03-08T15:31:23;100547.47;;;30.51
24714;BMP280;12820;51.580;5.010;2024-03-08T15:36:27;100544.84;;;30.09
24714;BMP280;12820;51.580;5.010;2024-03-08T15:41:35;100529.13;;;29.77
24714;BMP280;12820;51.580;5.010;2024-03-08T15:46:38;100527.84;;;29.46
24714;BMP280;12820;51.580;5.010;2024-03-08T15:51:41;100519.25;;;29.20
24714;BMP280;12820;51.580;5.010;2024-03-08T15:56:44;100522.97;;;28.82
24714;BMP280;12820;51.580;5.010;2024-03-08T16:01:46;100514.63;;;28.24
24714;BMP280;12820;51.580;5.010;2024-03-08T16:06:53;100519.81;;;27.21
24714;BMP280;12820;51.580;5.010;2024-03-08T16:11:57;100523.84;;;25.75
24714;BMP280;12820;51.580;5.010;2024-03-08T16:17:00;100513.97;;;24.42
24714;BMP280;12820;51.580;5.010;2024-03-08T16:22:03;100507.34;;;23.25
24714;BMP280;12820;51.580;5.010;2024-03-08T16:27:06;100500.84;;;22.24
24714;BMP280;12820;51.580;5.010;2024-03-08T16:32:08;100504.09;;;21.36
24714;BMP280;12820;51.580;5.010;2024-03-08T16:37:11;100497.78;;;20.62
24714;BMP280;12820;51.580;5.010;2024-03-08T16:42:13;100505.25;;;19.93
24714;BMP280;12820;51.580;5.010;2024-03-08T16:47:15;100515.28;;;19.38
24714;BMP280;12820;51.580;5.010;2024-03-08T16:52:18;100511.69;;;18.80
24714;BMP280;12820;51.580;5.010;2024-03-08T16:57:22;100514.59;;;18.24
24714;BMP280;12820;51.580;5.010;2024-03-08T17:02:24;100516.84;;;17.79
24714;BMP280;12820;51.580;5.010;2024-03-08T17:07:26;100522.38;;;17.36
24714;BMP280;12820;51.580;5.010;2024-03-08T17:12:29;100520.88;;;16.96
24714;BMP280;12820;51.580;5.010;2024-03-08T17:17:31;100520.78;;;16.60
24714;BMP280;12820;51.580;5.010;2024-03-08T17:22:34;100517.50;;;16.19
24714;BMP280;12820;51.580;5.010;2024-03-08T17:27:36;100534.03;;;15.87
24714;BMP280;12820;51.580;5.010;2024-03-08T17:32:39;100530.41;;;15.52
24714;BMP280;12820;51.580;5.010;2024-03-08T17:37:41;100538.25;;;15.24
24714;BMP280;12820;51.580;5.010;2024-03-08T17:42:44;100527.63;;;14.93
24714;BMP280;12820;51.580;5.010;2024-03-08T17:47:48;100532.75;;;14.68
24714;BMP280;12820;51.580;5.010;2024-03-08T17:52:51;100539.63;;;14.41
24714;BMP280;12820;51.580;5.010;2024-03-08T17:57:55;100537.00;;;14.19
24714;BMP280;12820;51.580;5.010;2024-03-08T18:02:58;100535.34;;;13.94
24714;BMP280;12820;51.580;5.010;2024-03-08T18:08:00;100539.38;;;13.72
24714;BMP280;12820;51.580;5.010;2024-03-08T18:13:04;100538.41;;;13.51
24714;BMP280;12820;51.580;5.010;2024-03-08T18:18:17;100528.13;;;13.29
24714;BMP280;12820;51.580;5.010;2024-03-08T18:23:20;100526.16;;;13.11
24714;BMP280;12820;51.580;5.010;2024-03-08T18:28:23;100519.16;;;12.92
24714;BMP280;12820;51.580;5.010;2024-03-08T18:33:25;100515.41;;;12.77
24714;BMP280;12820;51.580;5.010;2024-03-08T18:38:29;100518.34;;;12.62
24714;BMP280;12820;51.580;5.010;2024-03-08T18:43:32;100515.31;;;12.48
24714;BMP280;12820;51.580;5.010;2024-03-08T18:48:36;100524.06;;;12.36
24714;BMP280;12820;51.580;5.010;2024-03-08T18:53:38;100517.75;;;12.22
24714;BMP280;12820;51.580;5.010;2024-03-08T18:58:43;100504.69;;;12.07
24714;BMP280;12820;51.580;5.010;2024-03-08T19:03:48;100514.19;;;11.96
24714;BMP280;12820;51.580;5.010;2024-03-08T19:08:52;100527.84;;;11.88
24714;BMP280;12820;51.580;5.010;2024-03-08T19:13:56;100518.94;;;11.75
24714;BMP280;12820;51.580;5.010;2024-03-08T19:19:01;100510.84;;;11.63
24714;BMP280;12820;51.580;5.010;2024-03-08T19:24:04;100497.69;;;11.52
24714;BMP280;12820;51.580;5.010;2024-03-08T19:29:06;100501.31;;;11.39
24714;BMP280;12820;51.580;5.010;2024-03-08T19:34:12;100521.59;;;11.34
24714;BMP280;12820;51.580;5.010;2024-03-08T19:39:14;100501.72;;;11.22
24714;BMP280;12820;51.580;5.010;2024-03-08T19:44:16;100512.75;;;11.15
24714;BMP280;12820;51.580;5.010;2024-03-08T19:49:18;100497.03;;;11.06
24714;BMP280;12820;51.580;5.010;2024-03-08T19:54:21;100494.69;;;10.99
24714;BMP280;12820;51.580;5.010;2024-03-08T19:59:23;100494.03;;;10.91
24714;BMP280;12820;51.580;5.010;2024-03-08T20:04:26;100487.53;;;10.81
24714;BMP280;12820;51.580;5.010;2024-03-08T20:09:31;100491.84;;;10.75
24714;BMP280;12820;51.580;5.010;2024-03-08T20:14:35;100506.25;;;10.67
24714;BMP280;12820;51.580;5.010;2024-03-08T20:19:37;100501.34;;;10.60
24714;BMP280;12820;51.580;5.010;2024-03-08T20:24:40;100491.41;;;10.54
24714;BMP280;12820;51.580;5.010;2024-03-08T20:29:43;100487.41;;;10.46
24714;BMP280;12820;51.580;5.010;2024-03-08T20:34:46;100490.84;;;10.40
24714;BMP280;12820;51.580;5.010;2024-03-08T20:39:48;100497.69;;;10.34
24714;BMP280;12820;51.580;5.010;2024-03-08T20:44:51;100480.25;;;10.27
24714;BMP280;12820;51.580;5.010;2024-03-08T20:49:53;100485.41;;;10.19
24714;BMP280;12820;51.580;5.010;2024-03-08T20:54:55;100485.50;;;10.15
24714;BMP280;12820;51.580;5.010;2024-03-08T20:59:57;100481.44;;;10.08
24714;BMP280;12820;51.580;5.010;2024-03-08T21:05:03;100486.53;;;10.02
24714;BMP280;12820;51.580;5.010;2024-03-08T21:10:06;100479.16;;;9.95
24714;BMP280;12820;51.580;5.010;2024-03-08T21:15:12;100486.78;;;9.91
24714;BMP280;12820;51.580;5.010;2024-03-08T21:20:16;100486.03;;;9.86
24714;BMP280;12820;51.580;5.010;2024-03-08T21:25:20;100477.75;;;9.81
24714;BMP280;12820;51.580;5.010;2024-03-08T21:30:22;100460.22;;;9.75
24714;BMP280;12820;51.580;5.010;2024-03-08T21:35:27;100464.50;;;9.70
24714;BMP280;12820;51.580;5.010;2024-03-08T21:40:32;100457.91;;;9.63
24714;BMP280;12820;51.580;5.010;2024-03-08T21:45:38;100461.28;;;9.62
24714;BMP280;12820;51.580;5.010;2024-03-08T21:50:40;100457.22;;;9.56
24714;BMP280;12820;51.580;5.010;2024-03-08T21:55:42;100463.13;;;9.52
24714;BMP280;12820;51.580;5.010;2024-03-08T22:00:46;100459.81;;;9.50
24714;BMP280;12820;51.580;5.010;2024-03-08T22:05:49;100453.13;;;9.49
24714;BMP280;12820;51.580;5.010;2024-03-08T22:10:52;100462.38;;;9.47
24714;BMP280;12820;51.580;5.010;2024-03-08T22:15:54;100454.78;;;9.50
24714;BMP280;12820;51.580;5.010;2024-03-08T22:20:56;100445.56;;;9.52
24714;BMP280;12820;51.580;5.010;2024-03-08T22:25:59;100453.88;;;9.54
24714;BMP280;12820;51.580;5.010;2024-03-08T22:31:02;100438.81;;;9.55
24714;BMP280;12820;51.580;5.010;2024-03-08T22:36:08;100440.47;;;9.56
24714;BMP280;12820;51.580;5.010;2024-03-08T22:41:10;100436.31;;;9.57
24714;BMP280;12820;51.580;5.010;2024-03-08T22:46:13;100434.63;;;9.56
24714;BMP280;12820;51.580;5.010;2024-03-08T22:51:15;100432.16;;;9.54
24714;BMP280;12820;51.580;5.010;2024-03-08T22:56:24;100427.19;;;9.53
24714;BMP280;12820;51.580;5.010;2024-03-08T23:01:27;100425.53;;;9.49
24714;BMP280;12820;51.580;5.010;2024-03-08T23:06:35;100423.03;;;9.49
24714;BMP280;12820;51.580;5.010;2024-03-08T23:11:42;100412.22;;;9.47
24714;BMP280;12820;51.580;5.010;2024-03-08T23:16:48;100400.53;;;9.44
24714;BMP280;12820;51.580;5.010;2024-03-08T23:21:52;100391.41;;;9.40
24714;BMP280;12820;51.580;5.010;2024-03-08T23:26:56;100404.84;;;9.38
24714;BMP280;12820;51.580;5.010;2024-03-08T23:31:58;100390.72;;;9.31
24714;BMP280;12820;51.580;5.010;2024-03-08T23:37:02;100384.97;;;9.26
24714;BMP280;12820;51.580;5.010;2024-03-08T23:42:05;100380.03;;;9.21
24714;BMP280;12820;51.580;5.010;2024-03-08T23:47:08;100379.28;;;9.16
24714;BMP280;12820;51.580;5.010;2024-03-08T23:52:10;100367.72;;;9.09
24714;BMP280;12820;51.580;5.010;2024-03-08T23:57:13;100383.75;;;8.99
